Terminal Aerodrome Forecast
Issued by NWS

Home | Current Version | Previous Version | Text Only | Print | Product List | Glossary On
Versions: 1 2 3 4 5 6 7 8 9 10 11 12 13 14 15 16 17 18 19 20 21 22 23 24 25 26 27 28 29 30 31 32 33 34 35
000
FTUS43 KDLH 301500 AAB
TAFHIB
TAF AMD
KHIB 301505Z 3015/0112 12009KT P6SM OVC007
     FM302000 13010KT P6SM BKN012
      TEMPO 3020/3024 SCT015
     FM010100 13006KT P6SM OVC012
     FM010500 12006KT P6SM OVC008 PROB30 0108/0112 -SHRA=

USA.gov is the U.S. government's official web portal to all federal, state and local government web resources and services.